sensor_id;sensor_type;location;lat;lon;timestamp;P1;durP1;ratioP1;P2;durP2;ratioP2
39300;SDS011;25019;42.626;23.380;2023-07-13T00:02:09;25.07;;;7.07;;
39300;SDS011;25019;42.626;23.380;2023-07-13T00:04:35;12.97;;;4.80;;
39300;SDS011;25019;42.626;23.380;2023-07-13T00:07:01;13.53;;;4.80;;
39300;SDS011;25019;42.626;23.380;2023-07-13T00:09:27;7.10;;;4.00;;
39300;SDS011;25019;42.626;23.380;2023-07-13T00:11:54;6.27;;;3.70;;
39300;SDS011;25019;42.626;23.380;2023-07-13T00:14:21;6.03;;;3.50;;
39300;SDS011;25019;42.626;23.380;2023-07-13T00:16:48;4.97;;;3.50;;
39300;SDS011;25019;42.626;23.380;2023-07-13T00:19:14;6.10;;;3.37;;
39300;SDS011;25019;42.626;23.380;2023-07-13T00:21:40;5.73;;;3.50;;
39300;SDS011;25019;42.626;23.380;2023-07-13T00:24:07;3.97;;;3.03;;
39300;SDS011;25019;42.626;23.380;2023-07-13T00:26:38;5.27;;;3.20;;
39300;SDS011;25019;42.626;23.380;2023-07-13T00:29:03;4.03;;;3.63;;
39300;SDS011;25019;42.626;23.380;2023-07-13T00:31:33;4.90;;;4.03;;
39300;SDS011;25019;42.626;23.380;2023-07-13T00:33:59;4.40;;;3.70;;
39300;SDS011;25019;42.626;23.380;2023-07-13T00:36:25;5.33;;;3.80;;
39300;SDS011;25019;42.626;23.380;2023-07-13T00:38:51;5.87;;;4.00;;
39300;SDS011;25019;42.626;23.380;2023-07-13T00:41:18;5.20;;;4.33;;
39300;SDS011;25019;42.626;23.380;2023-07-13T00:43:44;5.63;;;4.03;;
39300;SDS011;25019;42.626;23.380;2023-07-13T00:46:14;4.43;;;4.03;;
39300;SDS011;25019;42.626;23.380;2023-07-13T00:48:40;4.83;;;3.53;;
39300;SDS011;25019;42.626;23.380;2023-07-13T00:51:08;4.73;;;4.20;;
39300;SDS011;25019;42.626;23.380;2023-07-13T00:53:35;5.70;;;3.70;;
39300;SDS011;25019;42.626;23.380;2023-07-13T00:56:01;5.07;;;4.30;;
39300;SDS011;25019;42.626;23.380;2023-07-13T00:58:28;4.93;;;4.47;;
39300;SDS011;25019;42.626;23.380;2023-07-13T01:00:54;5.90;;;4.37;;
39300;SDS011;25019;42.626;23.380;2023-07-13T01:03:20;5.33;;;4.10;;
39300;SDS011;25019;42.626;23.380;2023-07-13T01:05:47;4.10;;;3.50;;
39300;SDS011;25019;42.626;23.380;2023-07-13T01:08:15;4.03;;;3.70;;
39300;SDS011;25019;42.626;23.380;2023-07-13T01:10:41;5.00;;;3.60;;
39300;SDS011;25019;42.626;23.380;2023-07-13T01:13:16;5.27;;;3.67;;
39300;SDS011;25019;42.626;23.380;2023-07-13T01:15:44;5.20;;;3.63;;
39300;SDS011;25019;42.626;23.380;2023-07-13T01:18:16;4.30;;;3.67;;
39300;SDS011;25019;42.626;23.380;2023-07-13T01:20:53;6.07;;;3.67;;
39300;SDS011;25019;42.626;23.380;2023-07-13T01:23:23;5.10;;;4.10;;
39300;SDS011;25019;42.626;23.380;2023-07-13T01:25:50;5.70;;;3.77;;
39300;SDS011;25019;42.626;23.380;2023-07-13T01:28:17;5.23;;;4.40;;
39300;SDS011;25019;42.626;23.380;2023-07-13T01:30:43;4.83;;;3.80;;
39300;SDS011;25019;42.626;23.380;2023-07-13T01:33:12;5.33;;;4.00;;
39300;SDS011;25019;42.626;23.380;2023-07-13T01:35:39;5.77;;;4.43;;
39300;SDS011;25019;42.626;23.380;2023-07-13T01:38:05;5.13;;;4.30;;
39300;SDS011;25019;42.626;23.380;2023-07-13T01:40:31;4.77;;;4.30;;
39300;SDS011;25019;42.626;23.380;2023-07-13T01:42:57;4.73;;;4.10;;
39300;SDS011;25019;42.626;23.380;2023-07-13T01:45:23;6.40;;;4.43;;
39300;SDS011;25019;42.626;23.380;2023-07-13T01:47:49;5.43;;;4.30;;
39300;SDS011;25019;42.626;23.380;2023-07-13T01:50:15;4.47;;;3.93;;
39300;SDS011;25019;42.626;23.380;2023-07-13T01:52:40;5.00;;;4.50;;
39300;SDS011;25019;42.626;23.380;2023-07-13T01:55:06;4.80;;;4.27;;
39300;SDS011;25019;42.626;23.380;2023-07-13T01:57:32;7.73;;;4.47;;
39300;SDS011;25019;42.626;23.380;2023-07-13T01:59:58;4.90;;;4.23;;
39300;SDS011;25019;42.626;23.380;2023-07-13T02:02:24;5.87;;;4.27;;
39300;SDS011;25019;42.626;23.380;2023-07-13T02:04:50;5.93;;;4.73;;
39300;SDS011;25019;42.626;23.380;2023-07-13T02:07:16;5.50;;;4.50;;
39300;SDS011;25019;42.626;23.380;2023-07-13T02:09:41;5.77;;;4.50;;
39300;SDS011;25019;42.626;23.380;2023-07-13T02:12:07;5.97;;;4.20;;
39300;SDS011;25019;42.626;23.380;2023-07-13T02:14:34;7.07;;;4.40;;
39300;SDS011;25019;42.626;23.380;2023-07-13T02:17:00;7.43;;;5.27;;
39300;SDS011;25019;42.626;23.380;2023-07-13T02:19:25;6.83;;;4.70;;
39300;SDS011;25019;42.626;23.380;2023-07-13T02:21:51;5.03;;;4.40;;
39300;SDS011;25019;42.626;23.380;2023-07-13T02:24:16;6.67;;;4.93;;
39300;SDS011;25019;42.626;23.380;2023-07-13T02:26:44;8.07;;;4.70;;
39300;SDS011;25019;42.626;23.380;2023-07-13T02:29:10;5.37;;;4.77;;
39300;SDS011;25019;42.626;23.380;2023-07-13T02:31:36;6.70;;;4.80;;
39300;SDS011;25019;42.626;23.380;2023-07-13T02:34:02;10.80;;;4.70;;
39300;SDS011;25019;42.626;23.380;2023-07-13T02:36:28;8.30;;;4.90;;
39300;SDS011;25019;42.626;23.380;2023-07-13T02:38:53;8.67;;;5.10;;
39300;SDS011;25019;42.626;23.380;2023-07-13T02:41:19;5.53;;;4.70;;
39300;SDS011;25019;42.626;23.380;2023-07-13T02:43:45;5.13;;;4.50;;
39300;SDS011;25019;42.626;23.380;2023-07-13T02:46:10;7.00;;;4.57;;
39300;SDS011;25019;42.626;23.380;2023-07-13T02:48:37;5.83;;;4.67;;
39300;SDS011;25019;42.626;23.380;2023-07-13T02:51:03;5.00;;;4.50;;
39300;SDS011;25019;42.626;23.380;2023-07-13T02:53:29;6.60;;;4.73;;
39300;SDS011;25019;42.626;23.380;2023-07-13T02:55:55;6.20;;;4.53;;
39300;SDS011;25019;42.626;23.380;2023-07-13T02:58:21;5.10;;;3.83;;
39300;SDS011;25019;42.626;23.380;2023-07-13T03:00:47;6.83;;;4.93;;
39300;SDS011;25019;42.626;23.380;2023-07-13T03:03:16;5.70;;;4.57;;
39300;SDS011;25019;42.626;23.380;2023-07-13T03:05:43;4.70;;;3.93;;
39300;SDS011;25019;42.626;23.380;2023-07-13T03:08:11;4.97;;;4.43;;
39300;SDS011;25019;42.626;23.380;2023-07-13T03:10:37;5.80;;;4.93;;
39300;SDS011;25019;42.626;23.380;2023-07-13T03:13:07;7.60;;;4.87;;
39300;SDS011;25019;42.626;23.380;2023-07-13T03:15:33;5.57;;;4.70;;
39300;SDS011;25019;42.626;23.380;2023-07-13T03:17:58;4.83;;;4.33;;
39300;SDS011;25019;42.626;23.380;2023-07-13T03:20:24;6.10;;;4.57;;
39300;SDS011;25019;42.626;23.380;2023-07-13T03:22:50;5.80;;;5.20;;
39300;SDS011;25019;42.626;23.380;2023-07-13T03:25:17;6.60;;;5.10;;
39300;SDS011;25019;42.626;23.380;2023-07-13T03:27:42;6.43;;;5.10;;
39300;SDS011;25019;42.626;23.380;2023-07-13T03:30:08;6.20;;;4.87;;
39300;SDS011;25019;42.626;23.380;2023-07-13T03:32:34;5.63;;;4.80;;
39300;SDS011;25019;42.626;23.380;2023-07-13T03:35:00;5.43;;;4.70;;
39300;SDS011;25019;42.626;23.380;2023-07-13T03:37:28;7.50;;;5.00;;
39300;SDS011;25019;42.626;23.380;2023-07-13T03:39:54;7.30;;;4.73;;
39300;SDS011;25019;42.626;23.380;2023-07-13T03:42:20;6.20;;;4.90;;
39300;SDS011;25019;42.626;23.380;2023-07-13T03:44:45;5.53;;;5.00;;
39300;SDS011;25019;42.626;23.380;2023-07-13T03:47:17;6.33;;;4.90;;
39300;SDS011;25019;42.626;23.380;2023-07-13T03:49:43;6.00;;;5.40;;
39300;SDS011;25019;42.626;23.380;2023-07-13T03:52:11;5.77;;;5.10;;
39300;SDS011;25019;42.626;23.380;2023-07-13T03:54:36;7.50;;;5.30;;
39300;SDS011;25019;42.626;23.380;2023-07-13T03:57:02;5.57;;;4.73;;
39300;SDS011;25019;42.626;23.380;2023-07-13T03:59:31;5.83;;;5.03;;
39300;SDS011;25019;42.626;23.380;2023-07-13T04:01:56;6.73;;;5.07;;
39300;SDS011;25019;42.626;23.380;2023-07-13T04:04:22;7.93;;;5.70;;
39300;SDS011;25019;42.626;23.380;2023-07-13T04:06:47;7.37;;;4.87;;
39300;SDS011;25019;42.626;23.380;2023-07-13T04:09:13;8.50;;;4.70;;
39300;SDS011;25019;42.626;23.380;2023-07-13T04:11:38;9.37;;;5.33;;
39300;SDS011;25019;42.626;23.380;2023-07-13T04:14:05;8.13;;;4.77;;
39300;SDS011;25019;42.626;23.380;2023-07-13T04:16:32;8.17;;;5.20;;
39300;SDS011;25019;42.626;23.380;2023-07-13T04:18:58;7.83;;;5.27;;
39300;SDS011;25019;42.626;23.380;2023-07-13T04:21:27;8.43;;;4.67;;
39300;SDS011;25019;42.626;23.380;2023-07-13T04:23:53;7.37;;;4.80;;
39300;SDS011;25019;42.626;23.380;2023-07-13T04:26:20;7.43;;;5.03;;
39300;SDS011;25019;42.626;23.380;2023-07-13T04:28:46;5.30;;;4.40;;
39300;SDS011;25019;42.626;23.380;2023-07-13T04:31:12;5.93;;;4.73;;
39300;SDS011;25019;42.626;23.380;2023-07-13T04:33:38;8.80;;;5.27;;
39300;SDS011;25019;42.626;23.380;2023-07-13T04:36:04;6.63;;;4.80;;
39300;SDS011;25019;42.626;23.380;2023-07-13T04:38:31;8.03;;;4.83;;
39300;SDS011;25019;42.626;23.380;2023-07-13T04:41:02;6.50;;;5.57;;
39300;SDS011;25019;42.626;23.380;2023-07-13T04:43:31;5.87;;;4.90;;
39300;SDS011;25019;42.626;23.380;2023-07-13T04:45:57;7.03;;;5.00;;
39300;SDS011;25019;42.626;23.380;2023-07-13T04:48:28;6.20;;;4.73;;
39300;SDS011;25019;42.626;23.380;2023-07-13T04:50:54;6.40;;;5.33;;
39300;SDS011;25019;42.626;23.380;2023-07-13T04:53:21;7.87;;;5.07;;
39300;SDS011;25019;42.626;23.380;2023-07-13T04:55:46;5.23;;;4.73;;
39300;SDS011;25019;42.626;23.380;2023-07-13T04:58:12;5.77;;;5.00;;
39300;SDS011;25019;42.626;23.380;2023-07-13T05:00:38;6.27;;;4.80;;
39300;SDS011;25019;42.626;23.380;2023-07-13T05:03:04;5.67;;;5.07;;
39300;SDS011;25019;42.626;23.380;2023-07-13T05:05:30;6.40;;;5.33;;
39300;SDS011;25019;42.626;23.380;2023-07-13T05:07:56;7.17;;;4.97;;
39300;SDS011;25019;42.626;23.380;2023-07-13T05:10:21;7.33;;;5.70;;
39300;SDS011;25019;42.626;23.380;2023-07-13T05:12:47;6.38;;;4.97;;
39300;SDS011;25019;42.626;23.380;2023-07-13T05:15:13;6.40;;;5.50;;
39300;SDS011;25019;42.626;23.380;2023-07-13T05:17:39;8.65;;;5.40;;
39300;SDS011;25019;42.626;23.380;2023-07-13T05:20:06;8.32;;;5.18;;
39300;SDS011;25019;42.626;23.380;2023-07-13T05:22:32;8.43;;;5.60;;
39300;SDS011;25019;42.626;23.380;2023-07-13T05:25:00;6.97;;;4.90;;
39300;SDS011;25019;42.626;23.380;2023-07-13T05:27:33;6.73;;;5.23;;
39300;SDS011;25019;42.626;23.380;2023-07-13T05:29:59;8.75;;;5.45;;
39300;SDS011;25019;42.626;23.380;2023-07-13T05:32:25;9.43;;;5.10;;
39300;SDS011;25019;42.626;23.380;2023-07-13T05:34:51;7.70;;;5.80;;
39300;SDS011;25019;42.626;23.380;2023-07-13T05:37:17;6.32;;;5.15;;
39300;SDS011;25019;42.626;23.380;2023-07-13T05:39:42;9.05;;;5.13;;
39300;SDS011;25019;42.626;23.380;2023-07-13T05:42:08;11.43;;;5.70;;
39300;SDS011;25019;42.626;23.380;2023-07-13T05:44:34;7.03;;;5.53;;
39300;SDS011;25019;42.626;23.380;2023-07-13T05:46:59;6.05;;;5.03;;
39300;SDS011;25019;42.626;23.380;2023-07-13T05:49:25;10.18;;;6.30;;
39300;SDS011;25019;42.626;23.380;2023-07-13T05:51:50;9.73;;;5.78;;
39300;SDS011;25019;42.626;23.380;2023-07-13T05:54:16;10.40;;;6.40;;
39300;SDS011;25019;42.626;23.380;2023-07-13T05:56:41;7.60;;;5.88;;
39300;SDS011;25019;42.626;23.380;2023-07-13T05:59:07;10.48;;;6.13;;
39300;SDS011;25019;42.626;23.380;2023-07-13T06:01:33;8.02;;;6.43;;
39300;SDS011;25019;42.626;23.380;2023-07-13T06:03:58;11.10;;;6.63;;
39300;SDS011;25019;42.626;23.380;2023-07-13T06:06:24;6.75;;;5.55;;
39300;SDS011;25019;42.626;23.380;2023-07-13T06:08:50;7.68;;;6.10;;
39300;SDS011;25019;42.626;23.380;2023-07-13T06:11:17;11.88;;;6.05;;
39300;SDS011;25019;42.626;23.380;2023-07-13T06:13:44;7.05;;;6.00;;
39300;SDS011;25019;42.626;23.380;2023-07-13T06:16:10;10.93;;;6.15;;
39300;SDS011;25019;42.626;23.380;2023-07-13T06:18:36;8.52;;;6.07;;
39300;SDS011;25019;42.626;23.380;2023-07-13T06:21:06;9.38;;;5.78;;
39300;SDS011;25019;42.626;23.380;2023-07-13T06:23:33;9.65;;;6.53;;
39300;SDS011;25019;42.626;23.380;2023-07-13T06:25:58;9.00;;;6.13;;
39300;SDS011;25019;42.626;23.380;2023-07-13T06:28:24;10.88;;;6.03;;
39300;SDS011;25019;42.626;23.380;2023-07-13T06:30:50;6.22;;;5.50;;
39300;SDS011;25019;42.626;23.380;2023-07-13T06:33:15;8.88;;;5.63;;
39300;SDS011;25019;42.626;23.380;2023-07-13T06:35:41;8.82;;;5.95;;
39300;SDS011;25019;42.626;23.380;2023-07-13T06:38:07;8.00;;;5.38;;
39300;SDS011;25019;42.626;23.380;2023-07-13T06:40:33;7.00;;;5.60;;
39300;SDS011;25019;42.626;23.380;2023-07-13T06:42:59;6.13;;;5.32;;
39300;SDS011;25019;42.626;23.380;2023-07-13T06:45:24;6.55;;;5.60;;
39300;SDS011;25019;42.626;23.380;2023-07-13T06:47:50;9.68;;;5.47;;
39300;SDS011;25019;42.626;23.380;2023-07-13T06:50:15;5.75;;;5.25;;
39300;SDS011;25019;42.626;23.380;2023-07-13T06:52:41;6.00;;;5.40;;
39300;SDS011;25019;42.626;23.380;2023-07-13T06:55:06;8.38;;;5.07;;
39300;SDS011;25019;42.626;23.380;2023-07-13T06:57:34;6.45;;;5.60;;
39300;SDS011;25019;42.626;23.380;2023-07-13T07:00:00;8.95;;;6.60;;
39300;SDS011;25019;42.626;23.380;2023-07-13T07:02:25;9.18;;;6.85;;
39300;SDS011;25019;42.626;23.380;2023-07-13T07:04:51;8.63;;;5.88;;
39300;SDS011;25019;42.626;23.380;2023-07-13T07:07:17;8.13;;;5.97;;
39300;SDS011;25019;42.626;23.380;2023-07-13T07:09:42;9.00;;;6.07;;
39300;SDS011;25019;42.626;23.380;2023-07-13T07:12:08;8.27;;;6.47;;
39300;SDS011;25019;42.626;23.380;2023-07-13T07:14:33;6.70;;;6.10;;
39300;SDS011;25019;42.626;23.380;2023-07-13T07:16:59;6.93;;;6.23;;
39300;SDS011;25019;42.626;23.380;2023-07-13T07:19:25;8.23;;;6.77;;
39300;SDS011;25019;42.626;23.380;2023-07-13T07:21:53;12.13;;;6.90;;
39300;SDS011;25019;42.626;23.380;2023-07-13T07:24:18;10.90;;;6.60;;
39300;SDS011;25019;42.626;23.380;2023-07-13T07:26:44;10.17;;;6.57;;
39300;SDS011;25019;42.626;23.380;2023-07-13T07:29:09;9.73;;;6.83;;
39300;SDS011;25019;42.626;23.380;2023-07-13T07:31:35;9.23;;;5.90;;
39300;SDS011;25019;42.626;23.380;2023-07-13T07:34:02;8.20;;;6.40;;
39300;SDS011;25019;42.626;23.380;2023-07-13T07:36:28;8.57;;;6.77;;
39300;SDS011;25019;42.626;23.380;2023-07-13T07:38:53;9.00;;;6.70;;
39300;SDS011;25019;42.626;23.380;2023-07-13T07:41:19;12.20;;;6.83;;
39300;SDS011;25019;42.626;23.380;2023-07-13T07:43:44;7.80;;;6.47;;
39300;SDS011;25019;42.626;23.380;2023-07-13T07:46:10;11.30;;;7.17;;
39300;SDS011;25019;42.626;23.380;2023-07-13T07:48:36;10.47;;;6.97;;
39300;SDS011;25019;42.626;23.380;2023-07-13T07:51:01;11.83;;;6.40;;
39300;SDS011;25019;42.626;23.380;2023-07-13T07:53:27;11.30;;;7.00;;
39300;SDS011;25019;42.626;23.380;2023-07-13T07:55:53;8.88;;;7.20;;
39300;SDS011;25019;42.626;23.380;2023-07-13T07:58:18;10.97;;;7.60;;
39300;SDS011;25019;42.626;23.380;2023-07-13T08:00:44;10.83;;;7.77;;
39300;SDS011;25019;42.626;23.380;2023-07-13T08:03:09;8.20;;;7.40;;
39300;SDS011;25019;42.626;23.380;2023-07-13T08:05:36;11.27;;;7.20;;
39300;SDS011;25019;42.626;23.380;2023-07-13T08:08:02;9.87;;;7.07;;
39300;SDS011;25019;42.626;23.380;2023-07-13T08:10:28;9.40;;;7.53;;
39300;SDS011;25019;42.626;23.380;2023-07-13T08:12:53;10.00;;;7.47;;
39300;SDS011;25019;42.626;23.380;2023-07-13T08:15:20;9.03;;;7.10;;
39300;SDS011;25019;42.626;23.380;2023-07-13T08:17:46;14.07;;;8.27;;
39300;SDS011;25019;42.626;23.380;2023-07-13T08:20:13;10.60;;;7.23;;
39300;SDS011;25019;42.626;23.380;2023-07-13T08:22:39;9.33;;;6.93;;
39300;SDS011;25019;42.626;23.380;2023-07-13T08:25:04;10.43;;;7.07;;
39300;SDS011;25019;42.626;23.380;2023-07-13T08:27:30;9.70;;;7.23;;
39300;SDS011;25019;42.626;23.380;2023-07-13T08:29:56;10.73;;;7.77;;
39300;SDS011;25019;42.626;23.380;2023-07-13T08:32:22;12.23;;;7.90;;
39300;SDS011;25019;42.626;23.380;2023-07-13T08:34:48;8.97;;;7.70;;
39300;SDS011;25019;42.626;23.380;2023-07-13T08:37:14;7.30;;;6.60;;
39300;SDS011;25019;42.626;23.380;2023-07-13T08:39:42;10.73;;;7.27;;
39300;SDS011;25019;42.626;23.380;2023-07-13T08:47:46;11.70;;;7.53;;
39300;SDS011;25019;42.626;23.380;2023-07-13T08:50:19;9.67;;;6.83;;
39300;SDS011;25019;42.626;23.380;2023-07-13T08:52:49;10.53;;;7.50;;
39300;SDS011;25019;42.626;23.380;2023-07-13T08:55:20;10.40;;;7.47;;
39300;SDS011;25019;42.626;23.380;2023-07-13T08:57:51;12.37;;;7.17;;
39300;SDS011;25019;42.626;23.380;2023-07-13T09:00:21;8.97;;;6.77;;
39300;SDS011;25019;42.626;23.380;2023-07-13T09:02:58;13.80;;;7.50;;
39300;SDS011;25019;42.626;23.380;2023-07-13T09:10:46;8.13;;;6.80;;
39300;SDS011;25019;42.626;23.380;2023-07-13T09:16:05;10.00;;;7.50;;
39300;SDS011;25019;42.626;23.380;2023-07-13T09:18:35;11.10;;;6.77;;
39300;SDS011;25019;42.626;23.380;2023-07-13T09:23:32;10.73;;;6.93;;
39300;SDS011;25019;42.626;23.380;2023-07-13T09:26:01;10.23;;;7.33;;
39300;SDS011;25019;42.626;23.380;2023-07-13T09:28:41;7.80;;;7.00;;
39300;SDS011;25019;42.626;23.380;2023-07-13T09:31:11;9.90;;;6.73;;
39300;SDS011;25019;42.626;23.380;2023-07-13T09:33:40;8.83;;;7.17;;
39300;SDS011;25019;42.626;23.380;2023-07-13T09:38:41;11.00;;;7.07;;
39300;SDS011;25019;42.626;23.380;2023-07-13T09:44:00;8.83;;;7.37;;
39300;SDS011;25019;42.626;23.380;2023-07-13T09:46:36;11.40;;;7.40;;
39300;SDS011;25019;42.626;23.380;2023-07-13T09:49:03;11.33;;;7.10;;
39300;SDS011;25019;42.626;23.380;2023-07-13T09:51:28;10.40;;;7.57;;
39300;SDS011;25019;42.626;23.380;2023-07-13T09:53:54;13.37;;;7.67;;
39300;SDS011;25019;42.626;23.380;2023-07-13T09:56:29;9.60;;;7.00;;
39300;SDS011;25019;42.626;23.380;2023-07-13T09:58:55;11.77;;;7.20;;
39300;SDS011;25019;42.626;23.380;2023-07-13T10:01:36;10.70;;;6.63;;
39300;SDS011;25019;42.626;23.380;2023-07-13T10:04:10;13.87;;;7.23;;
39300;SDS011;25019;42.626;23.380;2023-07-13T10:06:38;8.10;;;7.30;;
39300;SDS011;25019;42.626;23.380;2023-07-13T10:09:08;10.80;;;7.17;;
39300;SDS011;25019;42.626;23.380;2023-07-13T10:11:35;11.73;;;7.83;;
39300;SDS011;25019;42.626;23.380;2023-07-13T10:14:03;8.17;;;7.37;;
39300;SDS011;25019;42.626;23.380;2023-07-13T10:16:37;10.60;;;7.70;;
39300;SDS011;25019;42.626;23.380;2023-07-13T10:19:24;10.37;;;7.43;;
39300;SDS011;25019;42.626;23.380;2023-07-13T10:22:02;8.93;;;7.17;;
39300;SDS011;25019;42.626;23.380;2023-07-13T10:24:38;10.97;;;7.20;;
39300;SDS011;25019;42.626;23.380;2023-07-13T10:29:45;9.97;;;7.03;;
39300;SDS011;25019;42.626;23.380;2023-07-13T10:32:13;11.47;;;6.43;;
39300;SDS011;25019;42.626;23.380;2023-07-13T10:34:43;9.73;;;7.33;;
39300;SDS011;25019;42.626;23.380;2023-07-13T10:37:15;10.33;;;6.93;;
39300;SDS011;25019;42.626;23.380;2023-07-13T10:39:50;9.87;;;7.37;;
39300;SDS011;25019;42.626;23.380;2023-07-13T10:42:36;14.97;;;8.10;;
39300;SDS011;25019;42.626;23.380;2023-07-13T10:45:16;12.37;;;7.47;;
39300;SDS011;25019;42.626;23.380;2023-07-13T10:47:44;9.57;;;6.87;;
39300;SDS011;25019;42.626;23.380;2023-07-13T10:50:18;7.53;;;6.80;;
39300;SDS011;25019;42.626;23.380;2023-07-13T10:52:53;10.13;;;7.13;;
39300;SDS011;25019;42.626;23.380;2023-07-13T10:55:40;11.27;;;6.70;;
39300;SDS011;25019;42.626;23.380;2023-07-13T10:58:21;12.90;;;7.23;;
39300;SDS011;25019;42.626;23.380;2023-07-13T11:03:29;8.30;;;6.80;;
39300;SDS011;25019;42.626;23.380;2023-07-13T11:08:38;8.23;;;6.80;;
39300;SDS011;25019;42.626;23.380;2023-07-13T11:11:38;9.50;;;7.17;;
39300;SDS011;25019;42.626;23.380;2023-07-13T11:14:04;10.87;;;7.17;;
39300;SDS011;25019;42.626;23.380;2023-07-13T11:16:50;9.57;;;6.63;;
39300;SDS011;25019;42.626;23.380;2023-07-13T11:24:48;8.97;;;6.87;;
39300;SDS011;25019;42.626;23.380;2023-07-13T11:27:19;12.10;;;7.17;;
39300;SDS011;25019;42.626;23.380;2023-07-13T11:29:48;8.57;;;6.53;;
39300;SDS011;25019;42.626;23.380;2023-07-13T11:32:30;10.60;;;6.23;;
39300;SDS011;25019;42.626;23.380;2023-07-13T11:34:56;6.97;;;6.27;;
39300;SDS011;25019;42.626;23.380;2023-07-13T11:37:22;9.77;;;7.33;;
39300;SDS011;25019;42.626;23.380;2023-07-13T11:39:49;11.03;;;6.93;;
39300;SDS011;25019;42.626;23.380;2023-07-13T11:42:17;8.97;;;6.87;;
39300;SDS011;25019;42.626;23.380;2023-07-13T11:44:49;9.63;;;6.47;;
39300;SDS011;25019;42.626;23.380;2023-07-13T11:47:20;8.50;;;6.30;;
39300;SDS011;25019;42.626;23.380;2023-07-13T11:49:52;8.73;;;6.07;;
39300;SDS011;25019;42.626;23.380;2023-07-13T11:52:31;11.90;;;6.30;;
39300;SDS011;25019;42.626;23.380;2023-07-13T11:55:00;9.35;;;6.38;;
39300;SDS011;25019;42.626;23.380;2023-07-13T11:57:28;10.50;;;6.17;;
39300;SDS011;25019;42.626;23.380;2023-07-13T12:00:00;13.83;;;6.17;;
39300;SDS011;25019;42.626;23.380;2023-07-13T12:02:37;13.13;;;6.43;;
39300;SDS011;25019;42.626;23.380;2023-07-13T12:05:10;7.67;;;5.83;;
39300;SDS011;25019;42.626;23.380;2023-07-13T12:07:39;9.27;;;5.90;;
39300;SDS011;25019;42.626;23.380;2023-07-13T12:12:53;10.23;;;5.93;;
39300;SDS011;25019;42.626;23.380;2023-07-13T12:15:22;10.90;;;6.38;;
39300;SDS011;25019;42.626;23.380;2023-07-13T12:17:48;11.60;;;5.77;;
39300;SDS011;25019;42.626;23.380;2023-07-13T12:20:25;10.57;;;6.30;;
39300;SDS011;25019;42.626;23.380;2023-07-13T12:22:55;9.33;;;6.80;;
39300;SDS011;25019;42.626;23.380;2023-07-13T12:25:22;8.05;;;6.25;;
39300;SDS011;25019;42.626;23.380;2023-07-13T12:27:49;11.00;;;6.20;;
39300;SDS011;25019;42.626;23.380;2023-07-13T12:30:28;9.18;;;6.10;;
39300;SDS011;25019;42.626;23.380;2023-07-13T12:33:00;6.70;;;5.68;;
39300;SDS011;25019;42.626;23.380;2023-07-13T12:35:42;9.68;;;6.18;;
39300;SDS011;25019;42.626;23.380;2023-07-13T12:38:12;10.73;;;6.47;;
39300;SDS011;25019;42.626;23.380;2023-07-13T12:40:37;10.23;;;5.53;;
39300;SDS011;25019;42.626;23.380;2023-07-13T12:43:09;7.78;;;5.50;;
39300;SDS011;25019;42.626;23.380;2023-07-13T12:45:37;8.68;;;6.10;;
39300;SDS011;25019;42.626;23.380;2023-07-13T12:48:05;9.70;;;5.78;;
39300;SDS011;25019;42.626;23.380;2023-07-13T12:50:43;10.40;;;6.32;;
39300;SDS011;25019;42.626;23.380;2023-07-13T12:53:22;8.60;;;6.00;;
39300;SDS011;25019;42.626;23.380;2023-07-13T12:55:54;10.43;;;6.13;;
39300;SDS011;25019;42.626;23.380;2023-07-13T13:01:11;9.50;;;5.55;;
39300;SDS011;25019;42.626;23.380;2023-07-13T13:03:39;9.05;;;5.97;;
39300;SDS011;25019;42.626;23.380;2023-07-13T13:06:17;9.40;;;6.18;;
39300;SDS011;25019;42.626;23.380;2023-07-13T13:08:53;9.65;;;5.88;;
39300;SDS011;25019;42.626;23.380;2023-07-13T13:11:20;11.32;;;5.75;;
39300;SDS011;25019;42.626;23.380;2023-07-13T13:13:51;7.55;;;5.35;;
39300;SDS011;25019;42.626;23.380;2023-07-13T13:19:22;10.38;;;6.10;;
39300;SDS011;25019;42.626;23.380;2023-07-13T13:21:55;9.63;;;5.65;;
39300;SDS011;25019;42.626;23.380;2023-07-13T13:24:23;11.52;;;6.32;;
39300;SDS011;25019;42.626;23.380;2023-07-13T13:26:51;12.38;;;5.97;;
39300;SDS011;25019;42.626;23.380;2023-07-13T13:29:19;13.30;;;6.53;;
39300;SDS011;25019;42.626;23.380;2023-07-13T13:31:46;8.10;;;5.95;;
39300;SDS011;25019;42.626;23.380;2023-07-13T13:34:13;11.52;;;5.60;;
39300;SDS011;25019;42.626;23.380;2023-07-13T13:36:41;9.63;;;6.05;;
39300;SDS011;25019;42.626;23.380;2023-07-13T13:39:18;7.78;;;5.93;;
39300;SDS011;25019;42.626;23.380;2023-07-13T13:41:45;7.63;;;5.45;;
39300;SDS011;25019;42.626;23.380;2023-07-13T13:44:10;8.68;;;5.70;;
39300;SDS011;25019;42.626;23.380;2023-07-13T13:46:38;6.47;;;5.28;;
39300;SDS011;25019;42.626;23.380;2023-07-13T13:49:04;7.30;;;5.35;;
39300;SDS011;25019;42.626;23.380;2023-07-13T13:51:31;11.85;;;5.68;;
39300;SDS011;25019;42.626;23.380;2023-07-13T13:53:57;7.45;;;5.78;;
39300;SDS011;25019;42.626;23.380;2023-07-13T13:56:23;8.10;;;5.85;;
39300;SDS011;25019;42.626;23.380;2023-07-13T13:58:49;16.17;;;5.97;;
39300;SDS011;25019;42.626;23.380;2023-07-13T14:01:21;9.02;;;6.00;;
39300;SDS011;25019;42.626;23.380;2023-07-13T14:03:49;11.55;;;6.38;;
39300;SDS011;25019;42.626;23.380;2023-07-13T14:06:18;10.68;;;6.03;;
39300;SDS011;25019;42.626;23.380;2023-07-13T14:08:44;13.85;;;5.72;;
39300;SDS011;25019;42.626;23.380;2023-07-13T14:11:13;12.25;;;5.72;;
39300;SDS011;25019;42.626;23.380;2023-07-13T14:13:43;8.80;;;5.35;;
39300;SDS011;25019;42.626;23.380;2023-07-13T14:16:20;10.48;;;5.95;;
39300;SDS011;25019;42.626;23.380;2023-07-13T14:18:48;9.93;;;5.55;;
39300;SDS011;25019;42.626;23.380;2023-07-13T14:21:18;11.05;;;5.82;;
39300;SDS011;25019;42.626;23.380;2023-07-13T14:23:45;9.43;;;5.50;;
39300;SDS011;25019;42.626;23.380;2023-07-13T14:26:15;7.90;;;5.75;;
39300;SDS011;25019;42.626;23.380;2023-07-13T14:28:44;7.82;;;5.65;;
39300;SDS011;25019;42.626;23.380;2023-07-13T14:31:13;8.48;;;5.43;;
39300;SDS011;25019;42.626;23.380;2023-07-13T14:33:40;8.00;;;5.60;;
39300;SDS011;25019;42.626;23.380;2023-07-13T14:38:58;8.80;;;5.85;;
39300;SDS011;25019;42.626;23.380;2023-07-13T14:41:24;8.98;;;5.85;;
39300;SDS011;25019;42.626;23.380;2023-07-13T14:43:50;9.68;;;5.20;;
39300;SDS011;25019;42.626;23.380;2023-07-13T14:48:58;11.77;;;5.97;;
39300;SDS011;25019;42.626;23.380;2023-07-13T14:51:35;7.57;;;5.20;;
39300;SDS011;25019;42.626;23.380;2023-07-13T14:54:02;11.40;;;5.80;;
39300;SDS011;25019;42.626;23.380;2023-07-13T14:56:29;11.18;;;5.97;;
39300;SDS011;25019;42.626;23.380;2023-07-13T14:58:55;8.80;;;6.07;;
39300;SDS011;25019;42.626;23.380;2023-07-13T15:01:24;7.88;;;5.53;;
39300;SDS011;25019;42.626;23.380;2023-07-13T15:03:50;9.02;;;5.57;;
39300;SDS011;25019;42.626;23.380;2023-07-13T15:06:17;11.75;;;6.13;;
39300;SDS011;25019;42.626;23.380;2023-07-13T15:08:44;11.15;;;6.13;;
39300;SDS011;25019;42.626;23.380;2023-07-13T15:11:10;7.03;;;5.68;;
39300;SDS011;25019;42.626;23.380;2023-07-13T15:13:40;9.02;;;6.00;;
39300;SDS011;25019;42.626;23.380;2023-07-13T15:16:17;8.55;;;5.65;;
39300;SDS011;25019;42.626;23.380;2023-07-13T15:18:46;9.10;;;5.63;;
39300;SDS011;25019;42.626;23.380;2023-07-13T15:21:19;10.07;;;5.68;;
39300;SDS011;25019;42.626;23.380;2023-07-13T15:23:46;9.40;;;5.78;;
39300;SDS011;25019;42.626;23.380;2023-07-13T15:26:13;9.70;;;5.75;;